createdAt,value
2023-01-09T00:01:42.482Z,7.80
2023-01-09T00:04:09.688Z,7.90
2023-01-09T00:06:36.665Z,7.90
2023-01-09T00:09:03.501Z,7.90
2023-01-09T00:11:30.312Z,8.00
2023-01-09T00:13:57.264Z,8.00
2023-01-09T00:16:24.167Z,8.00
2023-01-09T00:18:54.007Z,8.00
2023-01-09T00:21:20.931Z,7.90
2023-01-09T00:23:47.870Z,7.90
2023-01-09T00:26:17.749Z,8.00
2023-01-09T00:28:48.413Z,8.10
2023-01-09T00:31:16.781Z,8.10
2023-01-09T00:33:52.679Z,8.20
2023-01-09T00:36:19.514Z,8.20
2023-01-09T00:38:46.311Z,8.20
2023-01-09T00:41:15.298Z,8.30
2023-01-09T00:43:45.124Z,8.40
2023-01-09T00:46:13.201Z,8.30
2023-01-09T00:48:42.109Z,8.30
2023-01-09T00:51:09.119Z,8.30
2023-01-09T00:53:37.192Z,8.30
2023-01-09T00:56:07.673Z,8.30
2023-01-09T00:58:35.066Z,8.30
2023-01-09T01:01:02.248Z,8.30
2023-01-09T01:03:29.153Z,8.20
2023-01-09T01:06:14.587Z,8.10
2023-01-09T01:08:41.411Z,8.10
2023-01-09T01:11:10.214Z,8.00
2023-01-09T01:13:37.720Z,7.90
2023-01-09T01:16:05.482Z,7.90
2023-01-09T01:18:32.470Z,7.90
2023-01-09T01:20:59.255Z,7.70
2023-01-09T01:23:26.482Z,7.80
2023-01-09T01:25:53.447Z,7.80
2023-01-09T01:28:20.146Z,7.70
2023-01-09T01:30:47.060Z,7.70
2023-01-09T01:33:13.878Z,7.70
2023-01-09T01:35:40.665Z,7.70
2023-01-09T01:38:07.432Z,7.70
2023-01-09T01:40:34.571Z,7.70
2023-01-09T01:43:01.499Z,7.70
2023-01-09T01:45:28.879Z,7.70
2023-01-09T01:47:58.191Z,7.70
2023-01-09T01:50:40.289Z,7.70
2023-01-09T01:53:15.252Z,7.70
2023-01-09T01:55:47.067Z,7.70
2023-01-09T01:58:14.943Z,7.70
2023-01-09T02:00:46.680Z,7.70
2023-01-09T02:03:15.681Z,7.70
2023-01-09T02:05:42.593Z,7.70
2023-01-09T02:08:09.934Z,7.80
2023-01-09T02:10:37.719Z,7.70
2023-01-09T02:13:04.761Z,7.60
2023-01-09T02:15:37.540Z,7.50
2023-01-09T02:18:17.342Z,7.50
2023-01-09T02:21:02.981Z,7.50
2023-01-09T02:23:35.971Z,7.40
2023-01-09T02:26:02.709Z,7.30
2023-01-09T02:28:38.633Z,7.30
2023-01-09T02:31:13.587Z,7.30
2023-01-09T02:34:01.649Z,7.30
2023-01-09T02:36:42.374Z,7.20
2023-01-09T02:39:20.237Z,7.20
2023-01-09T02:42:05.678Z,7.10
2023-01-09T02:44:36.064Z,7.10
2023-01-09T02:47:07.706Z,7.00
2023-01-09T02:49:36.115Z,7.00
2023-01-09T02:52:14.932Z,7.00
2023-01-09T02:54:50.714Z,7.00
2023-01-09T02:57:36.188Z,7.00
2023-01-09T03:00:08.001Z,7.00
2023-01-09T03:02:57.319Z,7.00
2023-01-09T03:05:39.460Z,7.00
2023-01-09T03:08:13.082Z,6.90
2023-01-09T03:10:54.685Z,6.90
2023-01-09T03:17:19.032Z,6.90
2023-01-09T03:19:46.292Z,6.80
2023-01-09T03:22:13.198Z,6.80
2023-01-09T03:24:39.994Z,6.80
2023-01-09T03:27:07.964Z,6.80
2023-01-09T03:29:34.819Z,6.70
2023-01-09T03:32:01.620Z,6.70
2023-01-09T03:34:28.434Z,6.70
2023-01-09T03:36:55.304Z,6.70
2023-01-09T03:39:22.089Z,6.70
2023-01-09T03:41:48.890Z,6.70
2023-01-09T03:44:15.703Z,6.70
2023-01-09T03:46:42.577Z,6.70
2023-01-09T03:49:09.339Z,6.70
2023-01-09T03:51:36.112Z,6.70
2023-01-09T03:54:02.999Z,6.70
2023-01-09T03:56:29.810Z,6.70
2023-01-09T03:58:56.659Z,6.60
2023-01-09T04:01:23.617Z,6.60
2023-01-09T04:03:50.549Z,6.60
2023-01-09T04:06:17.414Z,6.60
2023-01-09T04:08:46.328Z,6.60
2023-01-09T04:11:13.156Z,6.70
2023-01-09T04:13:40.065Z,6.70
2023-01-09T04:16:07.059Z,6.70
2023-01-09T04:18:33.894Z,6.70
2023-01-09T04:21:00.708Z,6.70
2023-01-09T04:23:27.432Z,6.70
2023-01-09T04:25:54.245Z,6.70
2023-01-09T04:28:21.149Z,6.70
2023-01-09T04:30:47.860Z,6.70
2023-01-09T04:33:14.890Z,6.70
2023-01-09T04:35:41.668Z,6.70
2023-01-09T04:38:08.499Z,6.70
2023-01-09T04:40:35.240Z,6.70
2023-01-09T04:43:02.044Z,6.70
2023-01-09T04:45:28.887Z,6.70
2023-01-09T04:47:55.721Z,6.70
2023-01-09T04:50:22.531Z,6.70
2023-01-09T04:52:49.366Z,6.70
2023-01-09T04:55:16.186Z,6.70
2023-01-09T04:57:43.021Z,6.70
2023-01-09T05:00:12.101Z,6.70
2023-01-09T05:02:38.970Z,6.70
2023-01-09T05:05:06.398Z,6.60
2023-01-09T05:07:33.539Z,6.70
2023-01-09T05:10:00.880Z,6.70
2023-01-09T05:12:27.631Z,6.70
2023-01-09T05:14:54.484Z,6.70
2023-01-09T05:17:21.226Z,6.60
2023-01-09T05:19:48.069Z,6.60
2023-01-09T05:22:15.002Z,6.60
2023-01-09T05:24:41.855Z,6.50
2023-01-09T05:27:08.615Z,6.50
2023-01-09T05:29:35.465Z,6.50
2023-01-09T05:32:02.242Z,6.50
2023-01-09T05:34:29.102Z,6.40
2023-01-09T05:36:55.932Z,6.40
2023-01-09T05:39:22.704Z,6.30
2023-01-09T05:41:49.454Z,6.30
2023-01-09T05:44:16.294Z,6.20
2023-01-09T05:46:43.097Z,6.20
2023-01-09T05:49:09.834Z,6.20
2023-01-09T05:51:36.727Z,6.20
2023-01-09T05:54:04.831Z,6.10
2023-01-09T05:56:31.626Z,6.20
2023-01-09T05:58:58.486Z,6.20
2023-01-09T06:01:25.322Z,6.10
2023-01-09T06:03:52.096Z,6.00
2023-01-09T06:06:18.869Z,6.00
2023-01-09T06:08:45.603Z,6.00
2023-01-09T06:11:12.434Z,6.00
2023-01-09T06:13:39.292Z,6.00
2023-01-09T06:16:06.677Z,6.10
2023-01-09T06:18:33.579Z,6.00
2023-01-09T06:21:00.279Z,6.10
2023-01-09T06:23:27.026Z,6.20
2023-01-09T06:25:53.909Z,6.20
2023-01-09T06:28:20.737Z,6.20
2023-01-09T06:30:50.562Z,6.20
2023-01-09T06:33:17.416Z,6.30
2023-01-09T06:35:44.286Z,6.30
2023-01-09T06:38:12.263Z,6.40
2023-01-09T06:40:39.156Z,6.40
2023-01-09T06:43:06.439Z,6.40
2023-01-09T06:45:33.363Z,6.20
2023-01-09T06:48:00.167Z,6.30
2023-01-09T06:50:27.003Z,6.30
2023-01-09T06:52:53.864Z,6.20
2023-01-09T06:55:20.689Z,6.30
2023-01-09T06:57:47.609Z,6.30
2023-01-09T07:00:14.618Z,6.40
2023-01-09T07:02:41.552Z,6.40
2023-01-09T07:05:08.786Z,6.40
2023-01-09T07:07:35.722Z,6.30
2023-01-09T07:10:02.500Z,6.30
2023-01-09T07:12:29.220Z,6.40
2023-01-09T07:14:57.623Z,6.40
2023-01-09T07:17:24.822Z,6.40
2023-01-09T07:19:51.677Z,6.50
2023-01-09T07:22:19.156Z,6.60
2023-01-09T07:24:45.972Z,6.50
2023-01-09T07:27:13.139Z,6.60
2023-01-09T07:29:39.956Z,6.50
2023-01-09T07:32:07.231Z,6.50
2023-01-09T07:34:34.228Z,6.50
2023-01-09T07:37:01.130Z,6.50
2023-01-09T07:39:27.942Z,6.50
2023-01-09T07:41:54.836Z,6.50
2023-01-09T07:44:21.578Z,6.50
2023-01-09T07:46:48.429Z,6.50
2023-01-09T07:49:15.234Z,6.50
2023-01-09T07:51:43.339Z,6.50
2023-01-09T07:54:11.151Z,6.50
2023-01-09T07:56:38.137Z,6.50
2023-01-09T07:59:05.083Z,6.50
2023-01-09T08:01:31.958Z,6.50
2023-01-09T08:03:59.013Z,6.40
2023-01-09T08:06:25.793Z,6.40
2023-01-09T08:08:52.539Z,6.40
2023-01-09T08:11:19.351Z,6.40
2023-01-09T08:13:46.241Z,6.50
2023-01-09T08:16:13.108Z,6.50
2023-01-09T08:18:40.000Z,6.50
2023-01-09T08:21:06.868Z,6.40
2023-01-09T08:23:33.888Z,6.40
2023-01-09T08:26:00.709Z,6.30
2023-01-09T08:28:27.457Z,6.30
2023-01-09T08:30:54.234Z,6.30
2023-01-09T08:33:21.197Z,6.20
2023-01-09T08:35:48.085Z,6.30
2023-01-09T08:38:15.127Z,6.30
2023-01-09T08:40:41.956Z,6.30
2023-01-09T08:43:27.760Z,6.40
2023-01-09T08:46:13.339Z,6.50
2023-01-09T08:48:40.158Z,6.50
2023-01-09T08:51:06.894Z,6.60
2023-01-09T08:53:33.682Z,6.60
2023-01-09T08:56:00.472Z,6.60
2023-01-09T08:58:27.309Z,6.60
2023-01-09T09:00:54.084Z,6.60
2023-01-09T09:03:21.770Z,6.60
2023-01-09T09:05:48.612Z,6.50
2023-01-09T09:08:16.505Z,6.50
2023-01-09T09:10:43.467Z,6.40
2023-01-09T09:13:10.280Z,6.40
2023-01-09T09:15:38.965Z,6.30
2023-01-09T09:18:07.002Z,6.30
2023-01-09T09:20:37.853Z,6.30
2023-01-09T09:23:05.524Z,6.30
2023-01-09T09:25:32.467Z,6.30
2023-01-09T09:28:01.341Z,6.30
2023-01-09T09:30:28.677Z,6.30
2023-01-09T09:32:55.735Z,6.40
2023-01-09T09:35:22.707Z,6.50
2023-01-09T09:37:53.043Z,6.50
2023-01-09T09:40:23.873Z,6.50
2023-01-09T09:43:24.065Z,6.50
2023-01-09T09:45:55.267Z,6.50
2023-01-09T09:48:33.088Z,6.50
2023-01-09T09:51:19.087Z,6.60
2023-01-09T09:53:45.914Z,6.70
2023-01-09T09:56:14.313Z,6.70
2023-01-09T09:58:42.470Z,6.80
2023-01-09T10:01:13.036Z,7.00
2023-01-09T10:03:43.083Z,7.10
2023-01-09T10:06:13.001Z,7.20
2023-01-09T10:08:57.035Z,7.20
2023-01-09T10:11:27.663Z,7.20
2023-01-09T10:14:15.964Z,7.20
2023-01-09T10:17:08.002Z,7.30
2023-01-09T10:19:53.772Z,7.40
2023-01-09T10:22:32.239Z,7.40
2023-01-09T10:25:05.425Z,7.40
2023-01-09T10:27:44.223Z,7.40
2023-01-09T10:30:27.666Z,7.40
2023-01-09T10:32:54.424Z,7.40
2023-01-09T10:35:21.174Z,7.50
2023-01-09T10:37:53.193Z,7.50
2023-01-09T10:40:29.650Z,7.50
2023-01-09T10:42:59.402Z,7.50
2023-01-09T10:45:31.474Z,7.40
2023-01-09T10:48:04.358Z,7.50
2023-01-09T10:50:33.990Z,7.70
2023-01-09T10:53:02.217Z,7.90
2023-01-09T10:55:50.501Z,7.70
2023-01-09T10:58:18.485Z,7.70
2023-01-09T11:00:46.314Z,7.70
2023-01-09T11:03:14.391Z,7.80
2023-01-09T11:05:41.837Z,7.90
2023-01-09T11:08:08.571Z,7.90
2023-01-09T11:10:49.556Z,7.90
2023-01-09T11:13:27.022Z,8.00
2023-01-09T11:16:00.016Z,8.00
2023-01-09T11:18:27.328Z,8.00
2023-01-09T11:20:54.147Z,7.90
2023-01-09T11:23:28.848Z,7.90
2023-01-09T11:25:57.965Z,8.00
2023-01-09T11:28:24.783Z,8.00
2023-01-09T11:30:53.226Z,8.00
2023-01-09T11:33:42.912Z,8.00
2023-01-09T11:36:11.122Z,8.00
2023-01-09T11:38:47.322Z,8.00
2023-01-09T11:41:24.597Z,8.00
2023-01-09T11:43:55.204Z,8.00
2023-01-09T11:46:43.843Z,7.90
2023-01-09T11:49:29.764Z,7.80
2023-01-09T11:52:15.544Z,7.70
2023-01-09T11:54:45.592Z,7.70
2023-01-09T11:57:13.028Z,7.70
2023-01-09T11:59:39.985Z,7.70
2023-01-09T12:02:44.416Z,7.60
2023-01-09T12:05:22.734Z,7.60
2023-01-09T12:08:18.731Z,7.60
2023-01-09T12:10:48.361Z,7.60
2023-01-09T12:13:31.478Z,7.70
2023-01-09T12:16:06.861Z,7.70
2023-01-09T12:18:42.613Z,7.60
2023-01-09T12:21:32.827Z,7.60
2023-01-09T12:24:26.454Z,7.60
2023-01-09T12:27:33.526Z,7.60
2023-01-09T12:30:15.272Z,7.50
2023-01-09T12:33:12.942Z,7.60
2023-01-09T12:35:42.666Z,7.60
2023-01-09T12:38:32.299Z,7.60
2023-01-09T12:41:04.529Z,7.60
2023-01-09T12:43:44.332Z,7.60
2023-01-09T12:46:23.117Z,7.50
2023-01-09T12:49:23.910Z,7.40
2023-01-09T12:52:01.321Z,7.30
2023-01-09T12:54:36.760Z,7.40
2023-01-09T12:57:31.952Z,7.30
2023-01-09T13:00:24.737Z,7.30
2023-01-09T13:03:07.243Z,7.30
2023-01-09T13:05:49.874Z,7.40
2023-01-09T13:08:39.571Z,7.40
2023-01-09T13:11:20.253Z,7.50
2023-01-09T13:14:06.751Z,7.70
2023-01-09T13:16:41.673Z,8.00
2023-01-09T13:19:27.098Z,8.40
2023-01-09T13:21:56.610Z,8.40
2023-01-09T13:24:35.235Z,8.20
2023-01-09T13:27:09.101Z,8.20
2023-01-09T13:29:40.573Z,8.20
2023-01-09T13:32:23.808Z,8.10
2023-01-09T13:34:54.035Z,8.10
2023-01-09T13:37:28.298Z,8.00
2023-01-09T13:40:04.825Z,8.00
2023-01-09T13:42:40.255Z,8.10
2023-01-09T13:45:31.550Z,8.10
2023-01-09T13:48:17.890Z,8.20
2023-01-09T13:50:51.812Z,8.50
2023-01-09T13:53:19.174Z,8.60
2023-01-09T13:55:59.192Z,8.50
2023-01-09T13:58:29.608Z,8.40
2023-01-09T14:01:00.517Z,8.50
2023-01-09T14:03:31.900Z,8.60
2023-01-09T14:05:59.235Z,8.70
2023-01-09T14:08:31.389Z,8.70
2023-01-09T14:11:02.052Z,8.80
2023-01-09T14:13:32.907Z,8.70
2023-01-09T14:16:19.203Z,8.60
2023-01-09T14:19:15.549Z,8.60
2023-01-09T14:22:03.785Z,8.50
2023-01-09T14:24:41.415Z,8.40
2023-01-09T14:27:47.316Z,8.40
2023-01-09T14:30:28.052Z,8.30
2023-01-09T14:33:17.181Z,8.20
2023-01-09T14:36:15.533Z,8.10
2023-01-09T14:38:54.073Z,8.10
2023-01-09T14:41:51.661Z,8.00
2023-01-09T14:44:47.844Z,8.00
2023-01-09T14:47:40.453Z,7.90
2023-01-09T14:50:19.377Z,7.90
2023-01-09T14:52:56.290Z,7.70
2023-01-09T14:55:45.348Z,7.60
2023-01-09T14:58:28.137Z,7.50
2023-01-09T15:01:01.588Z,7.20
2023-01-09T15:03:52.888Z,6.90
2023-01-09T15:06:24.045Z,6.70
2023-01-09T15:08:59.371Z,6.70
2023-01-09T15:11:27.642Z,6.50
2023-01-09T15:13:58.073Z,6.50
2023-01-09T15:16:27.036Z,6.40
2023-01-09T15:19:02.692Z,6.30
2023-01-09T15:21:31.896Z,6.40
2023-01-09T15:24:30.516Z,6.40
2023-01-09T15:27:22.031Z,6.40
2023-01-09T15:29:50.705Z,6.40
2023-01-09T15:32:26.830Z,6.40
2023-01-09T15:34:58.180Z,6.30
2023-01-09T15:37:39.117Z,6.20
2023-01-09T15:40:09.005Z,6.20
2023-01-09T15:42:58.251Z,6.20
2023-01-09T15:45:25.783Z,6.20
2023-01-09T15:47:54.055Z,6.30
2023-01-09T15:50:27.931Z,6.40
2023-01-09T15:52:57.224Z,6.50
2023-01-09T15:55:36.017Z,6.50
2023-01-09T15:58:04.916Z,6.60
2023-01-09T16:00:42.278Z,6.60
2023-01-09T16:03:20.853Z,6.70
2023-01-09T16:05:55.769Z,6.60
2023-01-09T16:08:32.381Z,6.60
2023-01-09T16:11:10.672Z,6.60
2023-01-09T16:13:46.992Z,6.60
2023-01-09T16:16:31.888Z,6.60
2023-01-09T16:19:00.030Z,6.60
2023-01-09T16:21:37.467Z,6.60
2023-01-09T16:24:17.433Z,6.50
2023-01-09T16:26:45.912Z,6.20
2023-01-09T16:29:37.903Z,6.00
2023-01-09T16:32:19.867Z,5.80
2023-01-09T16:34:52.671Z,5.70
2023-01-09T16:37:21.112Z,5.80
2023-01-09T16:40:06.825Z,5.70
2023-01-09T16:42:53.249Z,5.80
2023-01-09T16:45:21.324Z,5.70
2023-01-09T16:47:49.357Z,5.80
2023-01-09T16:50:17.252Z,5.80
2023-01-09T16:52:46.518Z,5.80
2023-01-09T16:55:14.876Z,5.80
2023-01-09T16:57:42.763Z,5.80
2023-01-09T17:00:20.504Z,5.80
2023-01-09T17:02:50.883Z,5.80
2023-01-09T17:05:19.759Z,5.90
2023-01-09T17:07:48.347Z,5.90
2023-01-09T17:10:21.763Z,6.00
2023-01-09T17:15:34.537Z,6.10
2023-01-09T17:23:27.404Z,6.20
2023-01-09T17:26:17.099Z,6.10
2023-01-09T17:28:48.300Z,6.20
2023-01-09T17:31:15.244Z,6.20
2023-01-09T17:33:42.683Z,6.20
2023-01-09T17:36:32.491Z,6.20
2023-01-09T17:39:00.396Z,6.20
2023-01-09T17:41:29.409Z,6.20
2023-01-09T17:43:57.433Z,6.20
2023-01-09T17:46:35.963Z,6.30
2023-01-09T17:49:04.891Z,6.30
2023-01-09T17:51:32.120Z,6.30
2023-01-09T17:54:00.213Z,6.30
2023-01-09T17:56:34.668Z,6.30
2023-01-09T17:59:01.561Z,6.30
2023-01-09T18:01:29.383Z,6.30
2023-01-09T18:03:56.351Z,6.30
2023-01-09T18:06:23.575Z,6.40
2023-01-09T18:08:51.567Z,6.40
2023-01-09T18:11:21.320Z,6.40
2023-01-09T18:13:50.018Z,6.40
2023-01-09T18:16:21.588Z,6.40
2023-01-09T18:18:49.094Z,6.40
2023-01-09T18:21:19.133Z,6.40
2023-01-09T18:23:47.640Z,6.40
2023-01-09T18:26:20.393Z,6.40
2023-01-09T18:28:52.824Z,6.40
2023-01-09T18:31:24.651Z,6.40
2023-01-09T18:33:53.875Z,6.40
2023-01-09T18:36:24.529Z,6.40
2023-01-09T18:38:53.418Z,6.40
2023-01-09T18:41:22.236Z,6.40
2023-01-09T18:43:54.381Z,6.40
2023-01-09T18:46:25.114Z,6.30
2023-01-09T18:48:56.971Z,6.20
2023-01-09T18:51:26.642Z,6.30
2023-01-09T18:53:55.816Z,6.30
2023-01-09T18:56:25.189Z,6.20
2023-01-09T18:58:57.985Z,6.20
2023-01-09T19:01:26.983Z,6.20
2023-01-09T19:03:56.078Z,6.20
2023-01-09T19:06:23.961Z,6.20
2023-01-09T19:08:51.463Z,6.10
2023-01-09T19:11:19.424Z,6.10
2023-01-09T19:13:47.150Z,6.10
2023-01-09T19:16:14.834Z,6.10
2023-01-09T19:18:43.596Z,6.10
2023-01-09T19:21:15.709Z,6.10
2023-01-09T19:23:44.463Z,6.00
2023-01-09T19:26:21.388Z,6.00
2023-01-09T19:28:50.639Z,5.90
2023-01-09T19:31:19.724Z,5.90
2023-01-09T19:33:47.944Z,5.80
2023-01-09T19:36:15.826Z,5.70
2023-01-09T19:38:44.182Z,5.70
2023-01-09T19:41:19.741Z,5.70
2023-01-09T19:43:48.312Z,5.70
2023-01-09T19:46:34.361Z,5.70
2023-01-09T19:49:05.207Z,5.70
2023-01-09T19:51:34.741Z,5.60
2023-01-09T19:56:31.545Z,5.60
2023-01-09T19:59:01.629Z,5.60
2023-01-09T20:01:38.073Z,5.60
2023-01-09T20:04:14.675Z,5.70
2023-01-09T20:06:45.976Z,5.70
2023-01-09T20:09:15.357Z,5.80
2023-01-09T20:11:45.371Z,5.90
2023-01-09T20:14:14.872Z,5.90
2023-01-09T20:16:43.272Z,5.90
2023-01-09T20:19:13.202Z,5.90
2023-01-09T20:21:40.695Z,5.90
2023-01-09T20:24:10.185Z,6.00
2023-01-09T20:26:39.953Z,6.00
2023-01-09T20:29:09.030Z,6.10
2023-01-09T20:31:37.472Z,6.10
2023-01-09T20:34:05.266Z,6.10
2023-01-09T20:36:33.583Z,6.10
2023-01-09T20:39:03.247Z,6.10
2023-01-09T20:41:32.228Z,6.10
2023-01-09T20:44:00.868Z,6.10
2023-01-09T20:46:31.313Z,6.10
2023-01-09T20:49:00.321Z,6.10
2023-01-09T20:51:28.471Z,6.10
2023-01-09T20:53:58.990Z,6.10
2023-01-09T20:56:27.949Z,6.10
2023-01-09T20:58:57.175Z,6.10
2023-01-09T21:01:25.810Z,6.10
2023-01-09T21:03:55.258Z,6.10
2023-01-09T21:06:25.235Z,6.00
2023-01-09T21:08:53.486Z,6.00
2023-01-09T21:11:21.998Z,5.90
2023-01-09T21:13:50.822Z,5.90
2023-01-09T21:16:21.899Z,5.90
2023-01-09T21:18:50.048Z,5.80
2023-01-09T21:21:20.902Z,5.90
2023-01-09T21:23:54.344Z,5.90
2023-01-09T21:26:25.375Z,5.90
2023-01-09T21:28:55.673Z,5.90
2023-01-09T21:31:26.430Z,5.90
2023-01-09T21:33:57.197Z,6.00
2023-01-09T21:36:24.325Z,6.00
2023-01-09T21:38:54.715Z,6.00
2023-01-09T21:41:40.502Z,6.10
2023-01-09T21:44:29.979Z,6.00
2023-01-09T21:46:59.034Z,6.10
2023-01-09T21:49:30.492Z,6.10
2023-01-09T21:51:58.156Z,6.10
2023-01-09T21:54:25.726Z,6.10
2023-01-09T21:56:54.286Z,6.10
2023-01-09T21:59:22.155Z,6.20
2023-01-09T22:01:50.536Z,6.20
2023-01-09T22:04:31.574Z,6.20
2023-01-09T22:07:00.127Z,6.10
2023-01-09T22:09:28.840Z,6.20
2023-01-09T22:11:59.625Z,6.10
2023-01-09T22:14:28.300Z,6.20
2023-01-09T22:16:55.347Z,6.10
2023-01-09T22:19:23.356Z,6.20
2023-01-09T22:21:51.057Z,6.20
2023-01-09T22:24:19.253Z,6.20
2023-01-09T22:26:46.552Z,6.20
2023-01-09T22:29:14.384Z,6.10
2023-01-09T22:31:43.407Z,6.20
2023-01-09T22:34:15.920Z,6.20
2023-01-09T22:36:43.929Z,6.10
2023-01-09T22:39:14.522Z,6.20
2023-01-09T22:41:42.643Z,6.20
2023-01-09T22:44:13.368Z,6.20
2023-01-09T22:46:41.059Z,6.20
2023-01-09T22:49:09.136Z,6.20
2023-01-09T22:51:36.879Z,6.20
2023-01-09T22:54:04.668Z,6.20
2023-01-09T22:56:32.275Z,6.20
2023-01-09T22:59:00.877Z,6.10
2023-01-09T23:01:28.292Z,6.10
2023-01-09T23:03:55.176Z,6.10
2023-01-09T23:06:23.521Z,6.10
2023-01-09T23:08:51.777Z,6.20
2023-01-09T23:11:48.551Z,6.20
2023-01-09T23:14:15.494Z,6.20
2023-01-09T23:16:42.528Z,6.20
2023-01-09T23:19:12.912Z,6.20
2023-01-09T23:21:39.949Z,6.20
2023-01-09T23:24:07.702Z,6.20
2023-01-09T23:26:35.314Z,6.20
2023-01-09T23:29:02.252Z,6.20
2023-01-09T23:31:29.163Z,6.20
2023-01-09T23:33:56.125Z,6.20
2023-01-09T23:36:22.980Z,6.20
2023-01-09T23:38:50.114Z,6.20
2023-01-09T23:41:17.065Z,6.20
2023-01-09T23:43:45.018Z,6.20
2023-01-09T23:46:12.552Z,6.20
2023-01-09T23:48:39.597Z,6.20
2023-01-09T23:51:06.883Z,6.10
2023-01-09T23:53:33.901Z,6.10
2023-01-09T23:56:01.530Z,6.10
2023-01-09T23:58:28.500Z,6.10
